sensor_id;sensor_type;location;lat;lon;timestamp;pressure;altitude;pressure_sealevel;temperature;humidity
46506;BME280;32220;49.808;9.968;2023-02-23T00:01:23;98488.69;;;9.63;69.53
46506;BME280;32220;49.808;9.968;2023-02-23T00:03:53;98505.84;;;9.70;69.92
46506;BME280;32220;49.808;9.968;2023-02-23T00:06:22;98496.25;;;9.55;70.07
46506;BME280;32220;49.808;9.968;2023-02-23T00:08:51;98506.44;;;9.61;70.43
46506;BME280;32220;49.808;9.968;2023-02-23T00:11:20;98477.59;;;9.44;70.81
46506;BME280;32220;49.808;9.968;2023-02-23T00:13:49;98503.41;;;9.53;70.78
46506;BME280;32220;49.808;9.968;2023-02-23T00:16:20;98493.91;;;9.51;71.11
46506;BME280;32220;49.808;9.968;2023-02-23T00:18:50;98482.53;;;9.36;70.73
46506;BME280;32220;49.808;9.968;2023-02-23T00:21:21;98493.25;;;9.47;71.56
46506;BME280;32220;49.808;9.968;2023-02-23T00:23:50;98496.00;;;9.46;71.69
46506;BME280;32220;49.808;9.968;2023-02-23T00:26:20;98496.00;;;9.46;72.64
46506;BME280;32220;49.808;9.968;2023-02-23T00:28:49;98489.84;;;9.45;73.21
46506;BME280;32220;49.808;9.968;2023-02-23T00:31:19;98486.66;;;9.40;73.15
46506;BME280;32220;49.808;9.968;2023-02-23T00:33:51;98487.97;;;9.47;72.65
46506;BME280;32220;49.808;9.968;2023-02-23T00:36:20;98480.41;;;9.41;73.03
46506;BME280;32220;49.808;9.968;2023-02-23T00:38:52;98476.75;;;9.44;73.15
46506;BME280;32220;49.808;9.968;2023-02-23T00:41:20;98456.84;;;9.38;72.80
46506;BME280;32220;49.808;9.968;2023-02-23T00:43:49;98483.59;;;9.60;72.93
46506;BME280;32220;49.808;9.968;2023-02-23T00:46:23;98486.34;;;9.59;73.05
46506;BME280;32220;49.808;9.968;2023-02-23T00:48:58;98493.13;;;9.63;72.96
46506;BME280;32220;49.808;9.968;2023-02-23T00:51:27;98485.28;;;9.61;73.00
46506;BME280;32220;49.808;9.968;2023-02-23T00:53:56;98487.00;;;9.62;72.61
46506;BME280;32220;49.808;9.968;2023-02-23T00:56:25;98488.88;;;9.60;72.67
46506;BME280;32220;49.808;9.968;2023-02-23T00:58:53;98477.75;;;9.55;72.51
46506;BME280;32220;49.808;9.968;2023-02-23T01:01:23;98483.69;;;9.59;72.42
46506;BME280;32220;49.808;9.968;2023-02-23T01:03:51;98486.16;;;9.62;72.33
46506;BME280;32220;49.808;9.968;2023-02-23T01:06:19;98469.81;;;9.55;72.15
46506;BME280;32220;49.808;9.968;2023-02-23T01:08:49;98486.78;;;9.65;72.86
46506;BME280;32220;49.808;9.968;2023-02-23T01:11:19;98494.72;;;9.65;72.38
46506;BME280;32220;49.808;9.968;2023-02-23T01:13:50;98495.56;;;9.66;72.20
46506;BME280;32220;49.808;9.968;2023-02-23T01:16:20;98471.06;;;9.50;72.09
46506;BME280;32220;49.808;9.968;2023-02-23T01:18:53;98506.03;;;9.67;72.20
46506;BME280;32220;49.808;9.968;2023-02-23T01:21:25;98497.16;;;9.68;72.17
46506;BME280;32220;49.808;9.968;2023-02-23T01:23:53;98488.28;;;9.69;73.27
46506;BME280;32220;49.808;9.968;2023-02-23T01:26:23;98473.97;;;9.59;73.40
46506;BME280;32220;49.808;9.968;2023-02-23T01:28:52;98487.34;;;9.70;73.00
46506;BME280;32220;49.808;9.968;2023-02-23T01:31:21;98480.16;;;9.72;72.83
46506;BME280;32220;49.808;9.968;2023-02-23T01:33:53;98484.50;;;9.73;72.50
46506;BME280;32220;49.808;9.968;2023-02-23T01:36:21;98477.91;;;9.66;72.64
46506;BME280;32220;49.808;9.968;2023-02-23T01:38:52;98475.25;;;9.66;72.35
46506;BME280;32220;49.808;9.968;2023-02-23T01:41:22;98485.97;;;9.78;72.31
46506;BME280;32220;49.808;9.968;2023-02-23T01:43:55;98491.25;;;9.78;72.04
46506;BME280;32220;49.808;9.968;2023-02-23T01:46:23;98484.19;;;9.78;72.28
46506;BME280;32220;49.808;9.968;2023-02-23T01:48:53;98463.72;;;9.67;72.14
46506;BME280;32220;49.808;9.968;2023-02-23T01:51:23;98479.22;;;9.73;72.52
46506;BME280;32220;49.808;9.968;2023-02-23T01:53:56;98476.84;;;9.69;72.41
46506;BME280;32220;49.808;9.968;2023-02-23T01:56:28;98462.13;;;9.65;72.08
46506;BME280;32220;49.808;9.968;2023-02-23T01:59:03;98480.69;;;9.78;72.22
46506;BME280;32220;49.808;9.968;2023-02-23T02:01:34;98482.38;;;9.79;72.25
46506;BME280;32220;49.808;9.968;2023-02-23T02:04:05;98484.94;;;9.80;72.19
46506;BME280;32220;49.808;9.968;2023-02-23T02:06:34;98466.28;;;9.69;72.09
46506;BME280;32220;49.808;9.968;2023-02-23T02:09:06;98466.94;;;9.72;71.89
46506;BME280;32220;49.808;9.968;2023-02-23T02:11:36;98479.56;;;9.82;71.78
46506;BME280;32220;49.808;9.968;2023-02-23T02:14:08;98464.81;;;9.78;71.66
46506;BME280;32220;49.808;9.968;2023-02-23T02:16:51;98476.53;;;9.88;71.88
46506;BME280;32220;49.808;9.968;2023-02-23T02:19:58;98477.47;;;9.87;71.80
46506;BME280;32220;49.808;9.968;2023-02-23T02:25:54;98478.41;;;9.86;71.97
46506;BME280;32220;49.808;9.968;2023-02-23T02:32:18;98470.88;;;9.80;72.96
46506;BME280;32220;49.808;9.968;2023-02-23T02:35:13;98478.19;;;9.76;72.97
46506;BME280;32220;49.808;9.968;2023-02-23T02:38:04;98477.41;;;9.74;73.12
46506;BME280;32220;49.808;9.968;2023-02-23T02:40:41;98479.22;;;9.73;73.62
46506;BME280;32220;49.808;9.968;2023-02-23T02:43:25;98470.53;;;9.71;73.53
46506;BME280;32220;49.808;9.968;2023-02-23T02:46:01;98471.47;;;9.70;73.60
46506;BME280;32220;49.808;9.968;2023-02-23T02:48:37;98458.34;;;9.69;74.06
46506;BME280;32220;49.808;9.968;2023-02-23T02:51:13;98469.59;;;9.72;74.07
46506;BME280;32220;49.808;9.968;2023-02-23T02:53:50;98472.22;;;9.72;74.00
46506;BME280;32220;49.808;9.968;2023-02-23T02:56:24;98452.97;;;9.70;74.13
46506;BME280;32220;49.808;9.968;2023-02-23T02:58:54;98462.69;;;9.70;73.92
46506;BME280;32220;49.808;9.968;2023-02-23T03:01:22;98466.09;;;9.72;74.14
46506;BME280;32220;49.808;9.968;2023-02-23T03:04:21;98465.25;;;9.71;74.08
46506;BME280;32220;49.808;9.968;2023-02-23T03:07:10;98469.78;;;9.69;74.09
46506;BME280;32220;49.808;9.968;2023-02-23T03:10:07;98465.44;;;9.68;73.95
46506;BME280;32220;49.808;9.968;2023-02-23T03:12:58;98462.25;;;9.63;73.72
46506;BME280;32220;49.808;9.968;2023-02-23T03:15:54;98464.91;;;9.63;74.27
46506;BME280;32220;49.808;9.968;2023-02-23T03:18:53;98455.00;;;9.53;74.15
46506;BME280;32220;49.808;9.968;2023-02-23T03:21:45;98459.91;;;9.59;74.25
46506;BME280;32220;49.808;9.968;2023-02-23T03:24:39;98464.34;;;9.58;74.31
46506;BME280;32220;49.808;9.968;2023-02-23T03:27:30;98465.28;;;9.57;74.16
46506;BME280;32220;49.808;9.968;2023-02-23T03:30:28;98462.63;;;9.57;74.18
46506;BME280;32220;49.808;9.968;2023-02-23T03:33:18;98469.63;;;9.58;74.11
46506;BME280;32220;49.808;9.968;2023-02-23T03:36:09;98462.84;;;9.54;74.71
46506;BME280;32220;49.808;9.968;2023-02-23T03:39:00;98460.69;;;9.47;74.91
46506;BME280;32220;49.808;9.968;2023-02-23T03:41:51;98476.03;;;9.54;74.96
46506;BME280;32220;49.808;9.968;2023-02-23T03:44:42;98466.63;;;9.50;74.98
46506;BME280;32220;49.808;9.968;2023-02-23T03:47:33;98458.91;;;9.47;74.72
46506;BME280;32220;49.808;9.968;2023-02-23T03:50:23;98473.41;;;9.54;74.65
46506;BME280;32220;49.808;9.968;2023-02-23T03:53:14;98488.69;;;9.63;75.02
46506;BME280;32220;49.808;9.968;2023-02-23T03:56:03;98483.41;;;9.63;75.05
46506;BME280;32220;49.808;9.968;2023-02-23T03:58:51;98484.13;;;9.65;75.21
46506;BME280;32220;49.808;9.968;2023-02-23T04:01:40;98483.19;;;9.66;75.16
46506;BME280;32220;49.808;9.968;2023-02-23T04:04:26;98468.78;;;9.58;74.98
46506;BME280;32220;49.808;9.968;2023-02-23T04:07:13;98480.34;;;9.69;75.08
46506;BME280;32220;49.808;9.968;2023-02-23T04:10:00;98482.03;;;9.70;74.87
46506;BME280;32220;49.808;9.968;2023-02-23T04:12:51;98482.03;;;9.70;74.78
46506;BME280;32220;49.808;9.968;2023-02-23T04:15:43;98487.16;;;9.73;74.73
46506;BME280;32220;49.808;9.968;2023-02-23T04:18:15;98480.06;;;9.74;75.19
46506;BME280;32220;49.808;9.968;2023-02-23T04:20:43;98476.19;;;9.65;74.99
46506;BME280;32220;49.808;9.968;2023-02-23T04:23:11;98449.72;;;9.53;75.12
46506;BME280;32220;49.808;9.968;2023-02-23T04:25:39;98468.25;;;9.65;75.22
46506;BME280;32220;49.808;9.968;2023-02-23T04:28:07;98484.50;;;9.73;76.04
46506;BME280;32220;49.808;9.968;2023-02-23T04:30:35;98483.56;;;9.75;75.99
46506;BME280;32220;49.808;9.968;2023-02-23T04:33:03;98490.41;;;9.77;75.98
46506;BME280;32220;49.808;9.968;2023-02-23T04:35:32;98434.34;;;9.45;76.01
46506;BME280;32220;49.808;9.968;2023-02-23T04:38:00;98489.19;;;9.83;76.38
46506;BME280;32220;49.808;9.968;2023-02-23T04:40:28;98473.94;;;9.73;76.58
46506;BME280;32220;49.808;9.968;2023-02-23T04:42:56;98480.69;;;9.78;76.21
46506;BME280;32220;49.808;9.968;2023-02-23T04:45:24;98471.72;;;9.80;76.32
46506;BME280;32220;49.808;9.968;2023-02-23T04:47:52;98497.44;;;9.91;76.49
46506;BME280;32220;49.808;9.968;2023-02-23T04:50:20;98482.75;;;9.87;76.29
46506;BME280;32220;49.808;9.968;2023-02-23T04:52:49;98479.03;;;9.77;76.35
46506;BME280;32220;49.808;9.968;2023-02-23T04:55:20;98483.91;;;9.83;76.42
46506;BME280;32220;49.808;9.968;2023-02-23T04:57:48;98481.66;;;9.77;76.40
46506;BME280;32220;49.808;9.968;2023-02-23T05:00:17;98487.47;;;9.82;76.47
46506;BME280;32220;49.808;9.968;2023-02-23T05:02:45;98473.94;;;9.73;76.42
46506;BME280;32220;49.808;9.968;2023-02-23T05:05:13;98498.06;;;9.82;76.28
46506;BME280;32220;49.808;9.968;2023-02-23T05:07:41;98489.78;;;9.73;76.54
46506;BME280;32220;49.808;9.968;2023-02-23T05:10:11;98496.38;;;9.81;76.56
46506;BME280;32220;49.808;9.968;2023-02-23T05:12:39;98491.94;;;9.81;76.13
46506;BME280;32220;49.808;9.968;2023-02-23T05:15:07;98481.09;;;9.71;76.45
46506;BME280;32220;49.808;9.968;2023-02-23T05:17:37;98499.94;;;9.80;76.64
46506;BME280;32220;49.808;9.968;2023-02-23T05:20:07;98499.19;;;9.78;76.75
46506;BME280;32220;49.808;9.968;2023-02-23T05:22:35;98476.00;;;9.68;76.73
46506;BME280;32220;49.808;9.968;2023-02-23T05:25:04;98496.97;;;9.71;77.10
46506;BME280;32220;49.808;9.968;2023-02-23T05:27:34;98471.31;;;9.59;77.19
46506;BME280;32220;49.808;9.968;2023-02-23T05:30:02;98469.63;;;9.58;77.34
46506;BME280;32220;49.808;9.968;2023-02-23T05:32:32;98489.88;;;9.72;77.12
46506;BME280;32220;49.808;9.968;2023-02-23T05:35:00;98487.16;;;9.73;77.05
46506;BME280;32220;49.808;9.968;2023-02-23T05:37:29;98473.03;;;9.60;77.03
46506;BME280;32220;49.808;9.968;2023-02-23T05:39:56;98488.09;;;9.72;77.19
46506;BME280;32220;49.808;9.968;2023-02-23T05:42:24;98488.09;;;9.72;77.03
46506;BME280;32220;49.808;9.968;2023-02-23T05:44:53;98477.91;;;9.66;77.23
46506;BME280;32220;49.808;9.968;2023-02-23T05:47:21;98487.34;;;9.70;77.28
46506;BME280;32220;49.808;9.968;2023-02-23T05:49:49;98484.97;;;9.66;77.56
46506;BME280;32220;49.808;9.968;2023-02-23T05:52:17;98490.94;;;9.69;77.38
46506;BME280;32220;49.808;9.968;2023-02-23T05:54:44;98477.47;;;9.60;77.42
46506;BME280;32220;49.808;9.968;2023-02-23T05:57:13;98483.41;;;9.63;77.27
46506;BME280;32220;49.808;9.968;2023-02-23T05:59:41;98488.47;;;9.66;77.20
46506;BME280;32220;49.808;9.968;2023-02-23T06:02:10;98489.41;;;9.65;77.54
46506;BME280;32220;49.808;9.968;2023-02-23T06:04:38;98486.78;;;9.65;77.10
46506;BME280;32220;49.808;9.968;2023-02-23T06:07:07;98480.19;;;9.58;77.39
46506;BME280;32220;49.808;9.968;2023-02-23T06:09:34;98499.13;;;9.65;77.42
46506;BME280;32220;49.808;9.968;2023-02-23T06:12:03;98492.28;;;9.62;77.29
46506;BME280;32220;49.808;9.968;2023-02-23T06:14:31;98497.56;;;9.62;77.28
46506;BME280;32220;49.808;9.968;2023-02-23T06:17:00;98498.41;;;9.63;77.57
46506;BME280;32220;49.808;9.968;2023-02-23T06:19:29;98481.44;;;9.53;77.57
46506;BME280;32220;49.808;9.968;2023-02-23T06:21:58;98503.91;;;9.60;77.49
46506;BME280;32220;49.808;9.968;2023-02-23T06:24:26;98507.06;;;9.65;77.43
46506;BME280;32220;49.808;9.968;2023-02-23T06:26:53;98491.63;;;9.59;77.54
46506;BME280;32220;49.808;9.968;2023-02-23T06:29:21;98516.59;;;9.67;77.56
46506;BME280;32220;49.808;9.968;2023-02-23T06:31:49;98525.28;;;9.69;77.97
46506;BME280;32220;49.808;9.968;2023-02-23T06:34:17;98494.34;;;9.57;77.79
46506;BME280;32220;49.808;9.968;2023-02-23T06:36:47;98508.78;;;9.66;77.89
46506;BME280;32220;49.808;9.968;2023-02-23T06:39:14;98518.88;;;9.73;77.77
46506;BME280;32220;49.808;9.968;2023-02-23T06:41:42;98496.81;;;9.60;77.88
46506;BME280;32220;49.808;9.968;2023-02-23T06:44:10;98522.06;;;9.79;78.12
46506;BME280;32220;49.808;9.968;2023-02-23T06:46:38;98516.56;;;9.82;78.11
46506;BME280;32220;49.808;9.968;2023-02-23T06:49:06;98531.31;;;9.86;77.93
46506;BME280;32220;49.808;9.968;2023-02-23T06:51:34;98528.47;;;9.89;77.75
46506;BME280;32220;49.808;9.968;2023-02-23T06:54:03;98532.59;;;9.93;77.65
46506;BME280;32220;49.808;9.968;2023-02-23T06:56:30;98537.88;;;9.93;77.72
46506;BME280;32220;49.808;9.968;2023-02-23T06:58:58;98542.13;;;9.95;78.01
46506;BME280;32220;49.808;9.968;2023-02-23T07:01:26;98541.09;;;9.98;78.08
46506;BME280;32220;49.808;9.968;2023-02-23T07:03:54;98539.19;;;10.00;77.88
46506;BME280;32220;49.808;9.968;2023-02-23T07:06:22;98532.41;;;9.96;78.01
46506;BME280;32220;49.808;9.968;2023-02-23T07:08:50;98544.25;;;10.03;77.94
46506;BME280;32220;49.808;9.968;2023-02-23T07:11:20;98545.97;;;10.04;77.95
46506;BME280;32220;49.808;9.968;2023-02-23T07:13:48;98517.91;;;9.89;78.07
46506;BME280;32220;49.808;9.968;2023-02-23T07:16:15;98552.56;;;10.11;77.93
46506;BME280;32220;49.808;9.968;2023-02-23T07:18:43;98536.91;;;10.08;77.96
46506;BME280;32220;49.808;9.968;2023-02-23T07:21:11;98541.88;;;10.13;77.88
46506;BME280;32220;49.808;9.968;2023-02-23T07:23:39;98550.09;;;10.22;77.94
46506;BME280;32220;49.808;9.968;2023-02-23T07:26:06;98542.91;;;10.24;77.80
46506;BME280;32220;49.808;9.968;2023-02-23T07:28:36;98532.63;;;10.20;77.90
46506;BME280;32220;49.808;9.968;2023-02-23T07:31:04;98529.13;;;10.19;77.98
46506;BME280;32220;49.808;9.968;2023-02-23T07:33:32;98540.03;;;10.27;77.93
46506;BME280;32220;49.808;9.968;2023-02-23T07:36:00;98534.56;;;10.30;78.08
46506;BME280;32220;49.808;9.968;2023-02-23T07:38:27;98533.41;;;10.34;77.84
46506;BME280;32220;49.808;9.968;2023-02-23T07:40:55;98546.78;;;10.46;77.89
46506;BME280;32220;49.808;9.968;2023-02-23T07:43:23;98551.44;;;10.55;77.82
46506;BME280;32220;49.808;9.968;2023-02-23T07:45:53;98551.03;;;10.61;78.07
46506;BME280;32220;49.808;9.968;2023-02-23T07:48:20;98542.88;;;10.64;78.08
46506;BME280;32220;49.808;9.968;2023-02-23T07:50:48;98481.41;;;10.33;78.06
46506;BME280;32220;49.808;9.968;2023-02-23T07:53:16;98548.31;;;10.88;78.07
46506;BME280;32220;49.808;9.968;2023-02-23T07:55:44;98531.34;;;10.90;78.95
46506;BME280;32220;49.808;9.968;2023-02-23T07:58:11;98551.19;;;11.10;78.50
46506;BME280;32220;49.808;9.968;2023-02-23T08:00:40;98551.28;;;11.21;78.56
46506;BME280;32220;49.808;9.968;2023-02-23T08:03:09;98538.53;;;11.26;78.98
46506;BME280;32220;49.808;9.968;2023-02-23T08:05:37;98551.16;;;11.48;78.77
46506;BME280;32220;49.808;9.968;2023-02-23T08:08:05;98544.00;;;11.61;78.57
46506;BME280;32220;49.808;9.968;2023-02-23T08:10:33;98536.75;;;11.76;78.66
46506;BME280;32220;49.808;9.968;2023-02-23T08:13:01;98533.13;;;11.90;78.47
46506;BME280;32220;49.808;9.968;2023-02-23T08:15:29;98551.47;;;12.16;77.98
46506;BME280;32220;49.808;9.968;2023-02-23T08:17:57;98554.59;;;12.34;78.36
46506;BME280;32220;49.808;9.968;2023-02-23T08:20:27;98543.72;;;12.37;78.22
46506;BME280;32220;49.808;9.968;2023-02-23T08:22:55;98562.13;;;12.51;78.28
46506;BME280;32220;49.808;9.968;2023-02-23T08:25:23;98560.31;;;12.52;78.39
46506;BME280;32220;49.808;9.968;2023-02-23T08:27:52;98558.25;;;12.44;78.35
46506;BME280;32220;49.808;9.968;2023-02-23T08:30:22;98563.19;;;12.49;78.33
46506;BME280;32220;49.808;9.968;2023-02-23T08:32:50;98562.13;;;12.51;78.18
46506;BME280;32220;49.808;9.968;2023-02-23T08:35:18;98550.91;;;12.48;77.68
46506;BME280;32220;49.808;9.968;2023-02-23T08:37:48;98547.78;;;12.54;77.58
46506;BME280;32220;49.808;9.968;2023-02-23T08:40:16;98565.22;;;12.69;77.36
46506;BME280;32220;49.808;9.968;2023-02-23T08:42:46;98554.81;;;12.66;77.64
46506;BME280;32220;49.808;9.968;2023-02-23T08:45:18;98559.78;;;12.71;77.47
46506;BME280;32220;49.808;9.968;2023-02-23T08:47:46;98556.88;;;12.74;77.71
46506;BME280;32220;49.808;9.968;2023-02-23T08:50:14;98573.31;;;12.79;77.41
46506;BME280;32220;49.808;9.968;2023-02-23T08:52:42;98569.81;;;12.78;77.55
46506;BME280;32220;49.808;9.968;2023-02-23T08:55:12;98569.19;;;12.75;77.46
46506;BME280;32220;49.808;9.968;2023-02-23T08:57:41;98572.59;;;12.77;77.27
46506;BME280;32220;49.808;9.968;2023-02-23T09:00:10;98562.81;;;12.77;77.82
46506;BME280;32220;49.808;9.968;2023-02-23T09:02:42;98565.97;;;12.82;78.16
46506;BME280;32220;49.808;9.968;2023-02-23T09:05:13;98572.28;;;12.92;77.89
46506;BME280;32220;49.808;9.968;2023-02-23T09:07:42;98568.06;;;13.01;78.34
46506;BME280;32220;49.808;9.968;2023-02-23T09:10:15;98556.00;;;13.08;77.93
46506;BME280;32220;49.808;9.968;2023-02-23T09:12:49;98549.72;;;13.09;77.93
46506;BME280;32220;49.808;9.968;2023-02-23T09:15:17;98569.59;;;13.27;77.74
46506;BME280;32220;49.808;9.968;2023-02-23T09:17:45;98570.66;;;13.36;77.30
46506;BME280;32220;49.808;9.968;2023-02-23T09:20:14;98567.66;;;13.41;77.23
46506;BME280;32220;49.808;9.968;2023-02-23T09:22:43;98576.84;;;13.48;77.69
46506;BME280;32220;49.808;9.968;2023-02-23T09:25:16;98570.09;;;13.44;77.41
46506;BME280;32220;49.808;9.968;2023-02-23T09:27:48;98571.66;;;13.46;77.67
46506;BME280;32220;49.808;9.968;2023-02-23T09:30:17;98564.75;;;13.44;77.35
46506;BME280;32220;49.808;9.968;2023-02-23T09:32:46;98561.84;;;13.36;77.36
46506;BME280;32220;49.808;9.968;2023-02-23T09:35:15;98562.22;;;13.31;77.42
46506;BME280;32220;49.808;9.968;2023-02-23T09:37:44;98551.19;;;13.24;77.29
46506;BME280;32220;49.808;9.968;2023-02-23T09:40:17;98559.56;;;13.20;77.95
46506;BME280;32220;49.808;9.968;2023-02-23T09:42:54;98576.09;;;13.23;78.21
46506;BME280;32220;49.808;9.968;2023-02-23T09:45:31;98578.91;;;13.22;77.88
46506;BME280;32220;49.808;9.968;2023-02-23T09:48:16;98575.75;;;13.28;78.17
46506;BME280;32220;49.808;9.968;2023-02-23T09:50:48;98565.00;;;13.29;78.21
46506;BME280;32220;49.808;9.968;2023-02-23T09:53:28;98576.59;;;13.51;78.19
46506;BME280;32220;49.808;9.968;2023-02-23T09:55:59;98580.22;;;13.61;77.67
46506;BME280;32220;49.808;9.968;2023-02-23T09:58:29;98583.88;;;13.71;77.51
46506;BME280;32220;49.808;9.968;2023-02-23T10:01:24;98569.34;;;13.75;77.74
46506;BME280;32220;49.808;9.968;2023-02-23T10:04:00;98571.53;;;13.81;77.66
46506;BME280;32220;49.808;9.968;2023-02-23T10:06:30;98568.84;;;13.81;77.43
46506;BME280;32220;49.808;9.968;2023-02-23T10:09:07;98566.19;;;13.81;77.46
46506;BME280;32220;49.808;9.968;2023-02-23T10:11:45;98570.28;;;13.74;77.60
46506;BME280;32220;49.808;9.968;2023-02-23T10:14:28;98583.59;;;13.85;77.50
46506;BME280;32220;49.808;9.968;2023-02-23T10:17:10;98574.19;;;13.81;77.51
46506;BME280;32220;49.808;9.968;2023-02-23T10:19:48;98578.78;;;13.79;77.54
46506;BME280;32220;49.808;9.968;2023-02-23T10:22:19;98581.06;;;13.73;77.54
46506;BME280;32220;49.808;9.968;2023-02-23T10:24:50;98585.06;;;13.67;77.36
46506;BME280;32220;49.808;9.968;2023-02-23T10:27:25;98594.97;;;13.76;77.76
46506;BME280;32220;49.808;9.968;2023-02-23T10:29:58;98571.78;;;13.67;78.33
46506;BME280;32220;49.808;9.968;2023-02-23T10:32:37;98577.94;;;13.68;77.81
46506;BME280;32220;49.808;9.968;2023-02-23T10:35:10;98588.94;;;13.74;77.94
46506;BME280;32220;49.808;9.968;2023-02-23T10:37:39;98594.00;;;13.88;77.46
46506;BME280;32220;49.808;9.968;2023-02-23T10:40:13;98590.72;;;14.07;77.33
46506;BME280;32220;49.808;9.968;2023-02-23T10:42:43;98596.34;;;14.25;76.97
46506;BME280;32220;49.808;9.968;2023-02-23T10:45:12;98595.81;;;14.53;76.52
46506;BME280;32220;49.808;9.968;2023-02-23T10:47:51;98585.06;;;14.76;75.99
46506;BME280;32220;49.808;9.968;2023-02-23T10:50:20;98593.41;;;15.03;75.64
46506;BME280;32220;49.808;9.968;2023-02-23T10:52:55;98603.41;;;15.31;74.74
46506;BME280;32220;49.808;9.968;2023-02-23T10:55:26;98590.75;;;15.33;73.86
46506;BME280;32220;49.808;9.968;2023-02-23T10:58:07;98572.78;;;15.35;73.67
46506;BME280;32220;49.808;9.968;2023-02-23T11:00:51;98594.28;;;15.55;72.91
46506;BME280;32220;49.808;9.968;2023-02-23T11:03:24;98598.56;;;15.67;72.35
46506;BME280;32220;49.808;9.968;2023-02-23T11:05:53;98580.38;;;15.91;71.97
46506;BME280;32220;49.808;9.968;2023-02-23T11:08:25;98601.59;;;16.52;71.46
46506;BME280;32220;49.808;9.968;2023-02-23T11:11:00;98592.88;;;16.98;70.08
46506;BME280;32220;49.808;9.968;2023-02-23T11:13:34;98597.88;;;17.40;67.83
46506;BME280;32220;49.808;9.968;2023-02-23T11:16:05;98611.00;;;17.89;66.83
46506;BME280;32220;49.808;9.968;2023-02-23T11:18:35;98602.25;;;18.15;65.19
46506;BME280;32220;49.808;9.968;2023-02-23T11:21:08;98627.38;;;18.41;63.11
46506;BME280;32220;49.808;9.968;2023-02-23T11:23:37;98618.84;;;18.46;62.53
46506;BME280;32220;49.808;9.968;2023-02-23T11:26:20;98602.31;;;18.50;62.53
46506;BME280;32220;49.808;9.968;2023-02-23T11:28:53;98609.63;;;18.58;62.46
46506;BME280;32220;49.808;9.968;2023-02-23T11:31:29;98604.06;;;18.42;62.08
46506;BME280;32220;49.808;9.968;2023-02-23T11:34:01;98608.97;;;18.28;62.62
46506;BME280;32220;49.808;9.968;2023-02-23T11:36:32;98601.00;;;18.09;62.69
46506;BME280;32220;49.808;9.968;2023-02-23T11:39:04;98599.81;;;17.94;63.23
46506;BME280;32220;49.808;9.968;2023-02-23T11:41:34;98593.94;;;17.81;63.61
46506;BME280;32220;49.808;9.968;2023-02-23T11:44:05;98590.09;;;17.66;63.40
46506;BME280;32220;49.808;9.968;2023-02-23T11:46:35;98582.59;;;17.59;63.11
46506;BME280;32220;49.808;9.968;2023-02-23T11:49:06;98568.66;;;17.66;63.28
46506;BME280;32220;49.808;9.968;2023-02-23T11:51:35;98590.28;;;17.82;62.64
46506;BME280;32220;49.808;9.968;2023-02-23T11:54:04;98577.72;;;17.92;61.90
46506;BME280;32220;49.808;9.968;2023-02-23T11:56:35;98585.63;;;18.11;62.07
46506;BME280;32220;49.808;9.968;2023-02-23T11:59:06;98595.00;;;18.25;61.04
46506;BME280;32220;49.808;9.968;2023-02-23T12:01:44;98576.38;;;18.23;61.07
46506;BME280;32220;49.808;9.968;2023-02-23T12:04:25;98582.28;;;18.27;60.35
46506;BME280;32220;49.808;9.968;2023-02-23T12:10:12;98588.13;;;18.40;60.07
46506;BME280;32220;49.808;9.968;2023-02-23T12:12:50;98597.59;;;18.62;58.77
46506;BME280;32220;49.808;9.968;2023-02-23T12:15:30;98576.59;;;18.75;58.09
46506;BME280;32220;49.808;9.968;2023-02-23T12:18:04;98591.16;;;18.90;57.20
46506;BME280;32220;49.808;9.968;2023-02-23T12:20:37;98586.16;;;18.95;57.18
46506;BME280;32220;49.808;9.968;2023-02-23T12:23:09;98589.28;;;19.09;57.43
46506;BME280;32220;49.808;9.968;2023-02-23T12:25:42;98587.25;;;19.02;56.94
46506;BME280;32220;49.808;9.968;2023-02-23T12:28:19;98594.34;;;18.94;56.73
46506;BME280;32220;49.808;9.968;2023-02-23T12:30:57;98592.06;;;18.81;56.79
46506;BME280;32220;49.808;9.968;2023-02-23T12:33:28;98578.03;;;18.52;57.07
46506;BME280;32220;49.808;9.968;2023-02-23T12:36:03;98573.19;;;18.38;57.48
46506;BME280;32220;49.808;9.968;2023-02-23T12:38:44;98575.47;;;18.33;57.98
46506;BME280;32220;49.808;9.968;2023-02-23T12:41:19;98577.78;;;18.27;57.71
46506;BME280;32220;49.808;9.968;2023-02-23T12:43:49;98565.09;;;18.20;57.52
46506;BME280;32220;49.808;9.968;2023-02-23T12:46:24;98543.19;;;18.07;57.68
46506;BME280;32220;49.808;9.968;2023-02-23T12:49:01;98562.34;;;18.12;58.01
46506;BME280;32220;49.808;9.968;2023-02-23T12:51:33;98570.03;;;17.97;58.10
46506;BME280;32220;49.808;9.968;2023-02-23T12:54:03;98531.06;;;17.48;58.32
46506;BME280;32220;49.808;9.968;2023-02-23T12:56:37;98551.56;;;17.30;59.09
46506;BME280;32220;49.808;9.968;2023-02-23T12:59:36;98556.25;;;17.08;59.56
46506;BME280;32220;49.808;9.968;2023-02-23T13:02:17;98543.94;;;16.78;60.40
46506;BME280;32220;49.808;9.968;2023-02-23T13:04:58;98549.84;;;16.63;61.17
46506;BME280;32220;49.808;9.968;2023-02-23T13:07:38;98544.19;;;16.37;61.51
46506;BME280;32220;49.808;9.968;2023-02-23T13:10:18;98541.91;;;16.23;61.78
46506;BME280;32220;49.808;9.968;2023-02-23T13:12:53;98540.19;;;16.02;62.60
46506;BME280;32220;49.808;9.968;2023-02-23T13:15:36;98544.56;;;15.94;62.76
46506;BME280;32220;49.808;9.968;2023-02-23T13:18:17;98519.34;;;15.77;62.87
46506;BME280;32220;49.808;9.968;2023-02-23T13:20:51;98531.00;;;15.76;63.42
46506;BME280;32220;49.808;9.968;2023-02-23T13:23:27;98514.81;;;15.68;63.69
46506;BME280;32220;49.808;9.968;2023-02-23T13:26:07;98516.53;;;15.69;64.04
46506;BME280;32220;49.808;9.968;2023-02-23T13:28:48;98535.66;;;15.84;64.47
46506;BME280;32220;49.808;9.968;2023-02-23T13:31:23;98515.69;;;15.78;64.24
46506;BME280;32220;49.808;9.968;2023-02-23T13:33:55;98523.84;;;15.86;64.02
46506;BME280;32220;49.808;9.968;2023-02-23T13:36:26;98533.44;;;16.08;64.43
46506;BME280;32220;49.808;9.968;2023-02-23T13:39:14;98532.06;;;16.23;64.54
46506;BME280;32220;49.808;9.968;2023-02-23T13:41:52;98510.69;;;16.33;63.60
46506;BME280;32220;49.808;9.968;2023-02-23T13:44:28;98513.97;;;16.65;62.82
46506;BME280;32220;49.808;9.968;2023-02-23T13:47:05;98523.88;;;17.02;61.89